sensor_id;sensor_type;location;lat;lon;timestamp;pressure;altitude;pressure_sealevel;temperature;humidity
10604;BME280;5349;41.554;23.274;2022-12-07T00:00:45;99635.13;;;9.90;100.00
10604;BME280;5349;41.554;23.274;2022-12-07T00:03:12;99631.81;;;9.88;100.00
10604;BME280;5349;41.554;23.274;2022-12-07T00:05:38;99633.22;;;9.84;100.00
10604;BME280;5349;41.554;23.274;2022-12-07T00:08:05;99628.53;;;9.86;100.00
10604;BME280;5349;41.554;23.274;2022-12-07T00:10:34;99624.41;;;9.84;100.00
10604;BME280;5349;41.554;23.274;2022-12-07T00:13:01;99620.28;;;9.81;100.00
10604;BME280;5349;41.554;23.274;2022-12-07T00:15:28;99627.66;;;9.79;100.00
10604;BME280;5349;41.554;23.274;2022-12-07T00:17:55;99625.78;;;9.80;100.00
10604;BME280;5349;41.554;23.274;2022-12-07T00:20:22;99627.66;;;9.79;100.00
10604;BME280;5349;41.554;23.274;2022-12-07T00:22:49;99627.66;;;9.79;100.00
10604;BME280;5349;41.554;23.274;2022-12-07T00:25:16;99625.53;;;9.75;100.00
10604;BME280;5349;41.554;23.274;2022-12-07T00:27:44;99621.69;;;9.77;100.00
10604;BME280;5349;41.554;23.274;2022-12-07T00:30:11;99621.56;;;9.71;100.00
10604;BME280;5349;41.554;23.274;2022-12-07T00:32:38;99622.69;;;9.76;100.00
10604;BME280;5349;41.554;23.274;2022-12-07T00:35:06;99623.78;;;9.82;100.00
10604;BME280;5349;41.554;23.274;2022-12-07T00:37:33;99621.75;;;9.84;100.00
10604;BME280;5349;41.554;23.274;2022-12-07T00:39:59;99619.44;;;9.81;100.00
10604;BME280;5349;41.554;23.274;2022-12-07T00:42:26;99623.13;;;9.80;100.00
10604;BME280;5349;41.554;23.274;2022-12-07T00:44:54;99628.66;;;9.78;100.00
10604;BME280;5349;41.554;23.274;2022-12-07T00:47:21;99616.34;;;9.77;100.00
10604;BME280;5349;41.554;23.274;2022-12-07T00:49:48;99618.38;;;9.75;100.00
10604;BME280;5349;41.554;23.274;2022-12-07T00:52:15;99614.06;;;9.74;100.00
10604;BME280;5349;41.554;23.274;2022-12-07T00:54:42;99615.88;;;9.74;100.00
10604;BME280;5349;41.554;23.274;2022-12-07T00:57:09;99616.72;;;9.74;100.00
10604;BME280;5349;41.554;23.274;2022-12-07T00:59:36;99621.41;;;9.72;100.00
10604;BME280;5349;41.554;23.274;2022-12-07T01:02:04;99609.91;;;9.72;100.00
10604;BME280;5349;41.554;23.274;2022-12-07T01:04:33;99612.22;;;9.61;100.00
10604;BME280;5349;41.554;23.274;2022-12-07T01:07:00;99609.28;;;9.56;100.00
10604;BME280;5349;41.554;23.274;2022-12-07T01:09:27;99617.06;;;9.57;100.00
10604;BME280;5349;41.554;23.274;2022-12-07T01:11:53;99607.91;;;9.60;100.00
10604;BME280;5349;41.554;23.274;2022-12-07T01:14:20;99615.06;;;9.59;100.00
10604;BME280;5349;41.554;23.274;2022-12-07T01:16:47;99618.72;;;9.58;100.00
10604;BME280;5349;41.554;23.274;2022-12-07T01:19:15;99607.25;;;9.58;100.00
10604;BME280;5349;41.554;23.274;2022-12-07T01:21:42;99609.38;;;9.62;100.00
10604;BME280;5349;41.554;23.274;2022-12-07T01:24:10;99611.28;;;9.68;100.00
10604;BME280;5349;41.554;23.274;2022-12-07T01:26:37;99610.91;;;9.71;100.00
10604;BME280;5349;41.554;23.274;2022-12-07T01:29:04;99614.06;;;9.74;100.00
10604;BME280;5349;41.554;23.274;2022-12-07T01:31:31;99615.34;;;9.78;100.00
10604;BME280;5349;41.554;23.274;2022-12-07T01:33:59;99609.53;;;9.75;100.00
10604;BME280;5349;41.554;23.274;2022-12-07T01:36:28;99607.16;;;9.65;100.00
10604;BME280;5349;41.554;23.274;2022-12-07T01:38:57;99599.25;;;9.72;100.00
10604;BME280;5349;41.554;23.274;2022-12-07T01:41:25;99603.03;;;9.77;100.00
10604;BME280;5349;41.554;23.274;2022-12-07T01:44:14;99599.09;;;9.73;100.00
10604;BME280;5349;41.554;23.274;2022-12-07T01:46:43;99600.09;;;9.72;100.00
10604;BME280;5349;41.554;23.274;2022-12-07T01:49:14;99578.63;;;9.60;100.00
10604;BME280;5349;41.554;23.274;2022-12-07T01:51:45;99589.25;;;9.74;100.00
10604;BME280;5349;41.554;23.274;2022-12-07T01:54:13;99587.78;;;9.71;100.00
10604;BME280;5349;41.554;23.274;2022-12-07T01:56:45;99575.13;;;9.73;100.00
10604;BME280;5349;41.554;23.274;2022-12-07T01:59:13;99575.56;;;9.77;100.00
10604;BME280;5349;41.554;23.274;2022-12-07T02:01:41;99575.13;;;9.73;100.00
10604;BME280;5349;41.554;23.274;2022-12-07T02:04:08;99571.16;;;9.55;100.00
10604;BME280;5349;41.554;23.274;2022-12-07T02:06:35;99578.88;;;9.50;100.00
10604;BME280;5349;41.554;23.274;2022-12-07T02:09:04;99572.09;;;9.48;100.00
10604;BME280;5349;41.554;23.274;2022-12-07T02:11:31;99571.72;;;9.51;100.00
10604;BME280;5349;41.554;23.274;2022-12-07T02:13:58;99560.88;;;9.52;100.00
10604;BME280;5349;41.554;23.274;2022-12-07T02:16:31;99554.09;;;9.50;100.00
10604;BME280;5349;41.554;23.274;2022-12-07T02:19:16;99558.41;;;9.51;100.00
10604;BME280;5349;41.554;23.274;2022-12-07T02:21:52;99547.41;;;9.54;100.00
10604;BME280;5349;41.554;23.274;2022-12-07T02:24:47;99547.03;;;9.57;100.00
10604;BME280;5349;41.554;23.274;2022-12-07T02:27:37;99542.72;;;9.56;100.00
10604;BME280;5349;41.554;23.274;2022-12-07T02:30:08;99544.00;;;9.60;100.00
10604;BME280;5349;41.554;23.274;2022-12-07T02:32:44;99541.25;;;9.53;100.00
10604;BME280;5349;41.554;23.274;2022-12-07T02:35:18;99528.22;;;9.44;100.00
10604;BME280;5349;41.554;23.274;2022-12-07T02:37:56;99546.94;;;9.50;100.00
10604;BME280;5349;41.554;23.274;2022-12-07T02:40:28;99534.47;;;9.51;100.00
10604;BME280;5349;41.554;23.274;2022-12-07T02:43:01;99535.09;;;9.53;100.00
10604;BME280;5349;41.554;23.274;2022-12-07T02:45:31;99529.31;;;9.49;100.00
10604;BME280;5349;41.554;23.274;2022-12-07T02:47:59;99533.56;;;9.44;100.00
10604;BME280;5349;41.554;23.274;2022-12-07T02:50:27;99531.56;;;9.31;100.00
10604;BME280;5349;41.554;23.274;2022-12-07T02:52:54;99533.69;;;9.07;100.00
10604;BME280;5349;41.554;23.274;2022-12-07T02:55:24;99532.19;;;8.90;100.00
10604;BME280;5349;41.554;23.274;2022-12-07T02:58:20;99530.69;;;8.73;100.00
10604;BME280;5349;41.554;23.274;2022-12-07T03:01:00;99539.31;;;8.75;100.00
10604;BME280;5349;41.554;23.274;2022-12-07T03:03:31;99537.75;;;8.80;100.00
10604;BME280;5349;41.554;23.274;2022-12-07T03:06:06;99533.72;;;8.84;100.00
10604;BME280;5349;41.554;23.274;2022-12-07T03:08:43;99532.00;;;8.77;100.00
10604;BME280;5349;41.554;23.274;2022-12-07T03:11:13;99530.91;;;8.86;100.00
10604;BME280;5349;41.554;23.274;2022-12-07T03:13:45;99522.00;;;8.93;100.00
10604;BME280;5349;41.554;23.274;2022-12-07T03:16:16;99526.22;;;9.02;100.00
10604;BME280;5349;41.554;23.274;2022-12-07T03:18:46;99514.94;;;9.00;100.00
10604;BME280;5349;41.554;23.274;2022-12-07T03:21:19;99519.53;;;9.06;100.00
10604;BME280;5349;41.554;23.274;2022-12-07T03:23:50;99523.28;;;9.12;100.00
10604;BME280;5349;41.554;23.274;2022-12-07T03:26:18;99517.88;;;9.20;100.00
10604;BME280;5349;41.554;23.274;2022-12-07T03:28:52;99518.16;;;9.10;100.00
10604;BME280;5349;41.554;23.274;2022-12-07T03:31:23;99528.25;;;9.00;100.00
10604;BME280;5349;41.554;23.274;2022-12-07T03:33:58;99527.88;;;9.03;100.00
10604;BME280;5349;41.554;23.274;2022-12-07T03:36:32;99522.75;;;9.02;100.00
10604;BME280;5349;41.554;23.274;2022-12-07T03:39:08;99525.50;;;9.08;100.00
10604;BME280;5349;41.554;23.274;2022-12-07T03:41:40;99525.41;;;9.16;100.00
10604;BME280;5349;41.554;23.274;2022-12-07T03:44:07;99515.31;;;9.26;100.00
10604;BME280;5349;41.554;23.274;2022-12-07T03:46:42;99521.34;;;9.35;100.00
10604;BME280;5349;41.554;23.274;2022-12-07T03:49:14;99518.16;;;9.39;100.00
10604;BME280;5349;41.554;23.274;2022-12-07T03:51:49;99524.91;;;9.42;100.00
10604;BME280;5349;41.554;23.274;2022-12-07T03:54:21;99523.16;;;9.49;100.00
10604;BME280;5349;41.554;23.274;2022-12-07T03:56:52;99516.25;;;9.54;100.00
10604;BME280;5349;41.554;23.274;2022-12-07T03:59:21;99515.44;;;9.54;100.00
10604;BME280;5349;41.554;23.274;2022-12-07T04:01:54;99511.03;;;9.61;100.00
10604;BME280;5349;41.554;23.274;2022-12-07T04:04:22;99510.41;;;9.59;100.00
10604;BME280;5349;41.554;23.274;2022-12-07T04:06:49;99516.25;;;9.54;100.00
10604;BME280;5349;41.554;23.274;2022-12-07T04:09:16;99513.97;;;9.51;100.00
10604;BME280;5349;41.554;23.274;2022-12-07T04:11:43;99492.91;;;9.35;100.00
10604;BME280;5349;41.554;23.274;2022-12-07T04:14:10;99511.88;;;9.47;100.00
10604;BME280;5349;41.554;23.274;2022-12-07T04:16:47;99507.88;;;9.36;100.00
10604;BME280;5349;41.554;23.274;2022-12-07T04:19:16;99503.28;;;9.30;100.00
10604;BME280;5349;41.554;23.274;2022-12-07T04:21:43;99507.66;;;9.38;100.00
10604;BME280;5349;41.554;23.274;2022-12-07T04:24:12;99513.63;;;9.40;100.00
10604;BME280;5349;41.554;23.274;2022-12-07T04:26:39;99508.78;;;9.43;100.00
10604;BME280;5349;41.554;23.274;2022-12-07T04:29:06;99503.91;;;9.47;100.00
10604;BME280;5349;41.554;23.274;2022-12-07T04:31:32;99518.22;;;9.46;100.00
10604;BME280;5349;41.554;23.274;2022-12-07T04:33:59;99509.59;;;9.44;100.00
10604;BME280;5349;41.554;23.274;2022-12-07T04:36:27;99511.25;;;9.45;100.00
10604;BME280;5349;41.554;23.274;2022-12-07T04:38:55;99499.31;;;9.41;100.00
10604;BME280;5349;41.554;23.274;2022-12-07T04:41:23;99496.72;;;9.47;100.00
10604;BME280;5349;41.554;23.274;2022-12-07T04:43:53;99497.34;;;9.49;100.00
10604;BME280;5349;41.554;23.274;2022-12-07T04:46:20;99503.44;;;9.43;100.00
10604;BME280;5349;41.554;23.274;2022-12-07T04:48:47;99503.34;;;9.37;100.00
10604;BME280;5349;41.554;23.274;2022-12-07T04:51:16;99495.03;;;9.25;100.00
10604;BME280;5349;41.554;23.274;2022-12-07T04:53:46;99482.56;;;9.11;100.00
10604;BME280;5349;41.554;23.274;2022-12-07T04:56:13;99502.44;;;9.30;100.00
10604;BME280;5349;41.554;23.274;2022-12-07T04:58:40;99493.91;;;9.34;100.00
10604;BME280;5349;41.554;23.274;2022-12-07T05:01:07;99496.31;;;9.29;100.00
10604;BME280;5349;41.554;23.274;2022-12-07T05:03:34;99502.06;;;9.33;100.00
10604;BME280;5349;41.554;23.274;2022-12-07T05:06:01;99501.16;;;9.40;100.00
10604;BME280;5349;41.554;23.274;2022-12-07T05:08:28;99500.59;;;9.45;100.00
10604;BME280;5349;41.554;23.274;2022-12-07T05:10:56;99495.91;;;9.47;100.00
10604;BME280;5349;41.554;23.274;2022-12-07T05:13:23;99503.53;;;9.50;100.00
10604;BME280;5349;41.554;23.274;2022-12-07T05:15:50;99494.69;;;9.49;100.00
10604;BME280;5349;41.554;23.274;2022-12-07T05:18:17;99493.69;;;9.50;100.00
10604;BME280;5349;41.554;23.274;2022-12-07T05:20:44;99496.09;;;9.45;100.00
10604;BME280;5349;41.554;23.274;2022-12-07T05:23:11;99498.94;;;9.44;100.00
10604;BME280;5349;41.554;23.274;2022-12-07T05:25:38;99502.03;;;9.47;100.00
10604;BME280;5349;41.554;23.274;2022-12-07T05:28:06;99510.22;;;9.46;100.00
10604;BME280;5349;41.554;23.274;2022-12-07T05:30:33;99511.88;;;9.47;100.00
10604;BME280;5349;41.554;23.274;2022-12-07T05:33:00;99506.34;;;9.48;100.00
10604;BME280;5349;41.554;23.274;2022-12-07T05:35:28;99507.19;;;9.49;100.00
10604;BME280;5349;41.554;23.274;2022-12-07T05:37:55;99504.25;;;9.44;100.00
10604;BME280;5349;41.554;23.274;2022-12-07T05:40:22;99506.03;;;9.37;100.00
10604;BME280;5349;41.554;23.274;2022-12-07T05:42:49;99511.38;;;9.22;100.00
10604;BME280;5349;41.554;23.274;2022-12-07T05:45:17;99512.13;;;9.02;100.00
10604;BME280;5349;41.554;23.274;2022-12-07T05:47:44;99511.84;;;8.97;100.00
10604;BME280;5349;41.554;23.274;2022-12-07T05:50:11;99514.22;;;8.92;100.00
10604;BME280;5349;41.554;23.274;2022-12-07T05:52:38;99521.00;;;8.94;100.00
10604;BME280;5349;41.554;23.274;2022-12-07T05:55:05;99522.38;;;8.90;100.00
10604;BME280;5349;41.554;23.274;2022-12-07T05:57:33;99524.94;;;8.98;100.00
10604;BME280;5349;41.554;23.274;2022-12-07T06:00:00;99525.41;;;9.02;100.00
10604;BME280;5349;41.554;23.274;2022-12-07T06:02:27;99518.44;;;9.01;100.00
10604;BME280;5349;41.554;23.274;2022-12-07T06:04:54;99513.75;;;9.03;100.00
10604;BME280;5349;41.554;23.274;2022-12-07T06:07:21;99519.38;;;9.08;100.00
10604;BME280;5349;41.554;23.274;2022-12-07T06:09:47;99516.13;;;9.12;100.00
10604;BME280;5349;41.554;23.274;2022-12-07T06:12:14;99517.88;;;9.20;100.00
10604;BME280;5349;41.554;23.274;2022-12-07T06:14:59;99523.28;;;9.26;100.00
10604;BME280;5349;41.554;23.274;2022-12-07T06:17:27;99526.31;;;9.38;100.00
10604;BME280;5349;41.554;23.274;2022-12-07T06:19:54;99510.97;;;9.40;100.00
10604;BME280;5349;41.554;23.274;2022-12-07T06:22:20;99526.75;;;9.56;100.00
10604;BME280;5349;41.554;23.274;2022-12-07T06:24:47;99531.97;;;9.63;100.00
10604;BME280;5349;41.554;23.274;2022-12-07T06:27:14;99536.53;;;9.69;100.00
10604;BME280;5349;41.554;23.274;2022-12-07T06:29:41;99534.53;;;9.71;100.00
10604;BME280;5349;41.554;23.274;2022-12-07T06:32:08;99529.38;;;9.70;100.00
10604;BME280;5349;41.554;23.274;2022-12-07T06:34:36;99535.25;;;9.65;100.00
10604;BME280;5349;41.554;23.274;2022-12-07T06:37:03;99537.28;;;9.63;100.00
10604;BME280;5349;41.554;23.274;2022-12-07T06:39:30;99551.25;;;9.65;100.00
10604;BME280;5349;41.554;23.274;2022-12-07T06:41:57;99539.59;;;9.66;100.00
10604;BME280;5349;41.554;23.274;2022-12-07T06:44:24;99537.66;;;9.61;100.00
10604;BME280;5349;41.554;23.274;2022-12-07T06:46:51;99528.22;;;9.44;100.00
10604;BME280;5349;41.554;23.274;2022-12-07T06:49:18;99546.19;;;9.56;100.00
10604;BME280;5349;41.554;23.274;2022-12-07T06:51:46;99555.47;;;9.60;100.00
10604;BME280;5349;41.554;23.274;2022-12-07T06:54:14;99538.31;;;9.48;100.00
10604;BME280;5349;41.554;23.274;2022-12-07T06:56:42;99551.88;;;9.67;100.00
10604;BME280;5349;41.554;23.274;2022-12-07T06:59:08;99543.16;;;9.73;100.00
10604;BME280;5349;41.554;23.274;2022-12-07T07:01:36;99548.53;;;9.80;100.00
10604;BME280;5349;41.554;23.274;2022-12-07T07:04:03;99549.38;;;9.80;100.00
10604;BME280;5349;41.554;23.274;2022-12-07T07:06:30;99548.16;;;9.83;100.00
10604;BME280;5349;41.554;23.274;2022-12-07T07:08:59;99550.72;;;9.91;100.00
10604;BME280;5349;41.554;23.274;2022-12-07T07:11:25;99542.91;;;10.04;100.00
10604;BME280;5349;41.554;23.274;2022-12-07T07:13:52;99551.84;;;10.17;100.00
10604;BME280;5349;41.554;23.274;2022-12-07T07:16:22;99544.53;;;10.26;100.00
10604;BME280;5349;41.554;23.274;2022-12-07T07:18:49;99544.81;;;10.31;100.00
10604;BME280;5349;41.554;23.274;2022-12-07T07:21:16;99552.63;;;10.32;100.00
10604;BME280;5349;41.554;23.274;2022-12-07T07:23:42;99544.25;;;10.35;100.00
10604;BME280;5349;41.554;23.274;2022-12-07T07:26:11;99545.91;;;10.36;100.00
10604;BME280;5349;41.554;23.274;2022-12-07T07:28:38;99542.63;;;10.41;100.00
10604;BME280;5349;41.554;23.274;2022-12-07T07:31:05;99540.69;;;10.49;100.00
10604;BME280;5349;41.554;23.274;2022-12-07T07:33:31;99538.69;;;10.58;100.00
10604;BME280;5349;41.554;23.274;2022-12-07T07:35:58;99535.06;;;10.65;100.00
10604;BME280;5349;41.554;23.274;2022-12-07T07:38:25;99532.25;;;10.73;100.00
10604;BME280;5349;41.554;23.274;2022-12-07T07:40:52;99539.28;;;10.81;100.00
10604;BME280;5349;41.554;23.274;2022-12-07T07:43:20;99548.84;;;10.96;100.00
10604;BME280;5349;41.554;23.274;2022-12-07T07:45:47;99541.94;;;11.08;100.00
10604;BME280;5349;41.554;23.274;2022-12-07T07:48:14;99544.06;;;11.19;100.00
10604;BME280;5349;41.554;23.274;2022-12-07T07:50:40;99549.06;;;11.28;100.00
10604;BME280;5349;41.554;23.274;2022-12-07T07:53:07;99541.28;;;11.33;100.00
10604;BME280;5349;41.554;23.274;2022-12-07T07:55:34;99551.34;;;11.38;100.00
10604;BME280;5349;41.554;23.274;2022-12-07T07:58:01;99551.56;;;11.36;100.00
10604;BME280;5349;41.554;23.274;2022-12-07T08:00:29;99547.25;;;11.35;100.00
10604;BME280;5349;41.554;23.274;2022-12-07T08:02:56;99550.09;;;11.34;100.00
10604;BME280;5349;41.554;23.274;2022-12-07T08:05:23;99551.13;;;11.33;100.00
10604;BME280;5349;41.554;23.274;2022-12-07T08:07:50;99553.59;;;11.34;100.00
10604;BME280;5349;41.554;23.274;2022-12-07T08:10:16;99546.22;;;11.36;100.00
10604;BME280;5349;41.554;23.274;2022-12-07T08:12:43;99543.56;;;11.36;100.00
10604;BME280;5349;41.554;23.274;2022-12-07T08:15:30;99537.81;;;11.39;100.00
10604;BME280;5349;41.554;23.274;2022-12-07T08:17:57;99534.44;;;11.58;100.00
10604;BME280;5349;41.554;23.274;2022-12-07T08:20:24;99533.63;;;11.58;100.00
10604;BME280;5349;41.554;23.274;2022-12-07T08:22:51;99526.22;;;11.60;100.00
10604;BME280;5349;41.554;23.274;2022-12-07T08:25:18;99529.13;;;11.65;100.00
10604;BME280;5349;41.554;23.274;2022-12-07T08:27:46;99523.59;;;11.73;100.00
10604;BME280;5349;41.554;23.274;2022-12-07T08:30:13;99532.03;;;11.76;100.00
10604;BME280;5349;41.554;23.274;2022-12-07T08:32:41;99529.75;;;11.73;100.00
10604;BME280;5349;41.554;23.274;2022-12-07T08:35:08;99532.03;;;11.70;100.00
10604;BME280;5349;41.554;23.274;2022-12-07T08:37:36;99529.56;;;11.75;100.00
10604;BME280;5349;41.554;23.274;2022-12-07T08:40:04;99527.13;;;11.80;100.00
10604;BME280;5349;41.554;23.274;2022-12-07T08:42:31;99525.53;;;11.92;100.00
10604;BME280;5349;41.554;23.274;2022-12-07T08:45:04;99529.00;;;11.92;100.00
10604;BME280;5349;41.554;23.274;2022-12-07T08:47:31;99519.59;;;12.15;100.00
10604;BME280;5349;41.554;23.274;2022-12-07T08:50:01;99522.09;;;12.30;100.00
10604;BME280;5349;41.554;23.274;2022-12-07T08:52:29;99523.13;;;12.35;100.00
10604;BME280;5349;41.554;23.274;2022-12-07T08:54:56;99520.25;;;12.43;100.00
10604;BME280;5349;41.554;23.274;2022-12-07T08:57:24;99524.38;;;12.59;100.00
10604;BME280;5349;41.554;23.274;2022-12-07T08:59:51;99518.19;;;12.78;100.00
10604;BME280;5349;41.554;23.274;2022-12-07T09:02:18;99518.63;;;12.94;100.00
10604;BME280;5349;41.554;23.274;2022-12-07T09:04:44;99517.34;;;12.90;100.00
10604;BME280;5349;41.554;23.274;2022-12-07T09:07:13;99516.94;;;12.80;100.00
10604;BME280;5349;41.554;23.274;2022-12-07T09:09:40;99514.47;;;12.85;100.00
10604;BME280;5349;41.554;23.274;2022-12-07T09:12:07;99501.31;;;12.77;100.00
10604;BME280;5349;41.554;23.274;2022-12-07T09:14:34;99514.28;;;12.61;100.00
10604;BME280;5349;41.554;23.274;2022-12-07T09:17:05;99509.56;;;12.50;100.00
10604;BME280;5349;41.554;23.274;2022-12-07T09:19:32;99498.03;;;12.43;100.00
10604;BME280;5349;41.554;23.274;2022-12-07T09:21:59;99493.31;;;12.38;100.00
10604;BME280;5349;41.554;23.274;2022-12-07T09:24:27;99489.19;;;12.42;100.00
10604;BME280;5349;41.554;23.274;2022-12-07T09:26:54;99486.31;;;12.50;100.00
10604;BME280;5349;41.554;23.274;2022-12-07T09:29:21;99488.34;;;12.55;100.00
10604;BME280;5349;41.554;23.274;2022-12-07T09:31:48;99475.41;;;12.58;100.00
10604;BME280;5349;41.554;23.274;2022-12-07T09:34:15;99476.63;;;12.62;100.00
10604;BME280;5349;41.554;23.274;2022-12-07T09:36:42;99479.94;;;12.64;100.00
10604;BME280;5349;41.554;23.274;2022-12-07T09:39:09;99478.06;;;12.65;100.00
10604;BME280;5349;41.554;23.274;2022-12-07T09:41:39;99477.22;;;12.71;100.00
10604;BME280;5349;41.554;23.274;2022-12-07T09:44:11;99473.72;;;12.77;100.00
10604;BME280;5349;41.554;23.274;2022-12-07T09:46:40;99470.03;;;12.78;100.00
10604;BME280;5349;41.554;23.274;2022-12-07T09:49:12;99467.97;;;12.80;100.00
10604;BME280;5349;41.554;23.274;2022-12-07T09:51:40;99464.66;;;12.84;100.00
10604;BME280;5349;41.554;23.274;2022-12-07T09:54:08;99456.00;;;12.89;100.00
10604;BME280;5349;41.554;23.274;2022-12-07T09:56:39;99452.31;;;12.96;100.00
10604;BME280;5349;41.554;23.274;2022-12-07T09:59:12;99442.19;;;13.05;100.00
10604;BME280;5349;41.554;23.274;2022-12-07T10:01:48;99448.13;;;13.13;100.00
10604;BME280;5349;41.554;23.274;2022-12-07T10:04:17;99445.22;;;13.21;100.00
10604;BME280;5349;41.554;23.274;2022-12-07T10:06:44;99424.69;;;13.02;100.00
10604;BME280;5349;41.554;23.274;2022-12-07T10:09:14;99434.31;;;13.16;100.00
10604;BME280;5349;41.554;23.274;2022-12-07T10:12:03;99432.91;;;13.07;100.00
10604;BME280;5349;41.554;23.274;2022-12-07T10:14:32;99430.84;;;13.09;100.00
10604;BME280;5349;41.554;23.274;2022-12-07T10:17:00;99423.41;;;13.11;100.00
10604;BME280;5349;41.554;23.274;2022-12-07T10:19:29;99419.47;;;13.14;100.00
10604;BME280;5349;41.554;23.274;2022-12-07T10:22:07;99411.25;;;13.15;100.00
10604;BME280;5349;41.554;23.274;2022-12-07T10:24:35;99413.28;;;13.26;100.00
10604;BME280;5349;41.554;23.274;2022-12-07T10:27:17;99417.13;;;13.43;100.00
10604;BME280;5349;41.554;23.274;2022-12-07T10:29:48;99417.03;;;13.56;100.00
10604;BME280;5349;41.554;23.274;2022-12-07T10:32:29;99403.97;;;13.72;100.00
10604;BME280;5349;41.554;23.274;2022-12-07T10:35:19;99396.41;;;13.87;100.00
10604;BME280;5349;41.554;23.274;2022-12-07T10:37:47;99379.63;;;13.98;100.00
10604;BME280;5349;41.554;23.274;2022-12-07T10:40:27;99396.34;;;14.25;100.00
10604;BME280;5349;41.554;23.274;2022-12-07T10:43:04;99388.03;;;14.33;100.00
10604;BME280;5349;41.554;23.274;2022-12-07T10:45:32;99388.78;;;14.40;97.73
10604;BME280;5349;41.554;23.274;2022-12-07T10:48:03;99387.91;;;14.46;95.32
10604;BME280;5349;41.554;23.274;2022-12-07T10:50:47;99380.56;;;14.77;92.19
10604;BME280;5349;41.554;23.274;2022-12-07T10:53:30;99379.00;;;15.05;91.19
10604;BME280;5349;41.554;23.274;2022-12-07T10:56:32;99377.63;;;15.14;88.41
10604;BME280;5349;41.554;23.274;2022-12-07T10:59:25;99360.78;;;15.07;88.72
10604;BME280;5349;41.554;23.274;2022-12-07T11:01:57;99363.91;;;15.22;88.78
10604;BME280;5349;41.554;23.274;2022-12-07T11:04:33;99351.47;;;15.28;86.98
10604;BME280;5349;41.554;23.274;2022-12-07T11:07:06;99337.66;;;15.06;88.50
10604;BME280;5349;41.554;23.274;2022-12-07T11:09:49;99348.78;;;14.92;89.70
10604;BME280;5349;41.554;23.274;2022-12-07T11:12:26;99343.78;;;14.95;91.20
10604;BME280;5349;41.554;23.274;2022-12-07T11:15:01;99344.50;;;15.02;92.00
10604;BME280;5349;41.554;23.274;2022-12-07T11:17:36;99333.72;;;15.09;90.12
10604;BME280;5349;41.554;23.274;2022-12-07T11:20:20;99331.81;;;15.09;91.67
10604;BME280;5349;41.554;23.274;2022-12-07T11:22:52;99299.41;;;14.93;92.13
10604;BME280;5349;41.554;23.274;2022-12-07T11:25:26;99311.06;;;15.16;93.69
10604;BME280;5349;41.554;23.274;2022-12-07T11:28:11;99308.91;;;15.25;93.24
10604;BME280;5349;41.554;23.274;2022-12-07T11:30:49;99304.78;;;15.40;94.09
10604;BME280;5349;41.554;23.274;2022-12-07T11:33:28;99299.47;;;15.63;92.50
10604;BME280;5349;41.554;23.274;2022-12-07T11:36:02;99299.81;;;15.78;91.16
10604;BME280;5349;41.554;23.274;2022-12-07T11:38:41;99287.09;;;15.85;90.54
10604;BME280;5349;41.554;23.274;2022-12-07T11:41:09;99291.06;;;15.94;89.65
10604;BME280;5349;41.554;23.274;2022-12-07T11:43:50;99287.13;;;15.96;90.81
10604;BME280;5349;41.554;23.274;2022-12-07T11:46:23;99291.56;;;16.02;90.35
10604;BME280;5349;41.554;23.274;2022-12-07T11:48:56;99294.00;;;16.04;89.44
10604;BME280;5349;41.554;23.274;2022-12-07T11:51:24;99286.19;;;16.02;90.39
10604;BME280;5349;41.554;23.274;2022-12-07T11:53:56;99281.50;;;15.86;90.74
10604;BME280;5349;41.554;23.274;2022-12-07T11:56:27;99269.66;;;15.76;91.30
10604;BME280;5349;41.554;23.274;2022-12-07T11:58:57;99273.63;;;15.74;92.75
10604;BME280;5349;41.554;23.274;2022-12-07T12:01:35;99264.84;;;15.67;93.23
10604;BME280;5349;41.554;23.274;2022-12-07T12:04:10;99274.22;;;15.64;94.34
10604;BME280;5349;41.554;23.274;2022-12-07T12:06:43;99226.13;;;15.45;94.84
10604;BME280;5349;41.554;23.274;2022-12-07T12:09:13;99270.09;;;15.73;95.09
10604;BME280;5349;41.554;23.274;2022-12-07T12:12:01;99266.75;;;15.66;95.78
10604;BME280;5349;41.554;23.274;2022-12-07T12:14:42;99253.75;;;15.63;97.55
10604;BME280;5349;41.554;23.274;2022-12-07T12:20:26;99255.94;;;15.43;99.45
10604;BME280;5349;41.554;23.274;2022-12-07T12:22:59;99257.91;;;15.36;100.00
10604;BME280;5349;41.554;23.274;2022-12-07T12:25:29;99247.59;;;15.33;100.00
10604;BME280;5349;41.554;23.274;2022-12-07T12:27:59;99246.25;;;15.24;100.00
10604;BME280;5349;41.554;23.274;2022-12-07T12:30:31;99245.66;;;15.22;100.00
10604;BME280;5349;41.554;23.274;2022-12-07T12:33:04;99249.84;;;15.18;100.00
10604;BME280;5349;41.554;23.274;2022-12-07T12:35:35;99248.91;;;15.13;100.00
10604;BME280;5349;41.554;23.274;2022-12-07T12:38:24;99238.38;;;15.11;100.00
10604;BME280;5349;41.554;23.274;2022-12-07T12:40:52;99239.09;;;15.07;100.00
10604;BME280;5349;41.554;23.274;2022-12-07T12:43:45;99235.88;;;14.98;100.00
10604;BME280;5349;41.554;23.274;2022-12-07T12:46:50;99235.53;;;14.95;100.00
10604;BME280;5349;41.554;23.274;2022-12-07T12:49:38;99243.25;;;14.91;100.00
10604;BME280;5349;41.554;23.274;2022-12-07T12:55:19;99253.91;;;14.80;100.00
10604;BME280;5349;41.554;23.274;2022-12-07T12:57:50;99252.06;;;14.80;100.00
10604;BME280;5349;41.554;23.274;2022-12-07T13:00:36;99247.13;;;14.77;100.00
10604;BME280;5349;41.554;23.274;2022-12-07T13:03:04;99242.56;;;14.78;100.00
10604;BME280;5349;41.554;23.274;2022-12-07T13:05:31;99238.97;;;14.84;100.00
10604;BME280;5349;41.554;23.274;2022-12-07T13:08:00;99231.31;;;14.87;100.00
10604;BME280;5349;41.554;23.274;2022-12-07T13:10:40;99234.94;;;14.93;100.00
10604;BME280;5349;41.554;23.274;2022-12-07T13:13:31;99234.84;;;14.99;100.00
10604;BME280;5349;41.554;23.274;2022-12-07T13:16:38;99234.78;;;15.17;100.00
10604;BME280;5349;41.554;23.274;2022-12-07T13:22:38;99224.06;;;15.58;100.00
10604;BME280;5349;41.554;23.274;2022-12-07T13:25:10;99211.66;;;15.57;100.00